Quick Links (Output Below):   Max & Min Temps   /   Climate Reports   /   Zone Forecasts
River Forecasts   /   Forestry Forecasts   /   Aviation Forecasts   /   Radars   /   Features

Terminal Aerodrome Forecast (Arkadelphia)

Pick a Site:
Arkadelphia | El Dorado | Fayetteville | Fort Smith | Harrison | Highfill | Hot Springs | Jonesboro
Little Rock | Monticello | Mountain Home | Pine Bluff | Texarkana
 Forecast 

KADF 052334Z 0600/0624 21009KT P6SM SCT030 BKN050
     FM061000 VRB03KT P6SM BKN015
      TEMPO 0610/0614 3SM BR BKN008
     FM061600 20008G15KT P6SM VCTS SCT030CB BKN050=


 Latest METARs (Observations) 
How to Decode METARs
NO CURRENT OBSERVATIONS

***** Today's Observations (Above) *****


22Z KADF 052156Z AUTO 16004KT 4SM -RA BR FEW002 SCT036 BKN049 24/24
         A3002 RMK AO2 T02440238 LTG DSNT N AND NE RAB42 P0002
         SLP177
         
21Z KADF 052056Z AUTO VRB04KT 8SM FEW037 33/26 A3001 RMK AO2 56019
         T03330255 LTG DSNT SE AND S SLP175
         
19Z KADF 051856Z AUTO 25006KT 8SM FEW029 32/25 A3004 RMK AO2 T03160250
         LTG DSNT SE SLP185
         
18Z KADF 051756Z AUTO 22007KT 7SM FEW022 31/26 A3007 RMK AO2 50001
         T03050255 10305 20216 SLP194
         
11Z KADF 051056Z AUTO 21003KT 4SM BR OVC003 21/21 A3006 RMK AO2
         T02110211 SLP192
         
07Z KADF 050656Z AUTO 00000KT 5SM BR BKN047 22/22 A3003 RMK AO2
         T02220222 SLP180
         
04Z KADF 050356Z AUTO 00000KT 9SM CLR 23/23 A3002 RMK AO2 T02270227
         SLP178
         
01Z KADF 050056Z AUTO 19005KT 10SM FEW022 27/23 A2997 RMK AO2
         T02660233 SLP161
         
00Z KADF 042356Z AUTO 18007KT 10SM CLR 28/23 A2995 RMK AO2 58006
         T02770227 10300 20250 SLP155
         
***** Yesterday's Observations (Above) *****


Back to Main Page
http://www.srh.noaa.gov/lzk/qfcst.php

USA.gov is the U.S. government's official web portal to all federal, state and local government web resources and services.